sensor_id;sensor_type;location;lat;lon;timestamp;temperature;humidity
51793;DHT22;37850;53.178;6.376;2024-03-23T00:55:56;6.30;99.90
51793;DHT22;37850;53.178;6.376;2024-03-23T00:58:21;6.30;99.90
51793;DHT22;37850;53.178;6.376;2024-03-23T01:00:47;6.30;99.90
51793;DHT22;37850;53.178;6.376;2024-03-23T01:03:13;6.40;99.90
51793;DHT22;37850;53.178;6.376;2024-03-23T01:05:39;6.30;99.90
51793;DHT22;37850;53.178;6.376;2024-03-23T01:08:05;6.20;99.90
51793;DHT22;37850;53.178;6.376;2024-03-23T01:10:31;6.20;99.90
51793;DHT22;37850;53.178;6.376;2024-03-23T01:12:57;6.30;99.90
51793;DHT22;37850;53.178;6.376;2024-03-23T01:15:23;6.20;99.90
51793;DHT22;37850;53.178;6.376;2024-03-23T01:17:48;6.10;99.90
51793;DHT22;37850;53.178;6.376;2024-03-23T01:20:14;6.10;99.90
51793;DHT22;37850;53.178;6.376;2024-03-23T01:22:40;6.10;99.90
51793;DHT22;37850;53.178;6.376;2024-03-23T01:25:06;6.20;99.90
51793;DHT22;37850;53.178;6.376;2024-03-23T01:27:32;6.10;99.90
51793;DHT22;37850;53.178;6.376;2024-03-23T01:29:58;6.60;99.90
51793;DHT22;37850;53.178;6.376;2024-03-23T01:32:23;6.00;99.90
51793;DHT22;37850;53.178;6.376;2024-03-23T01:34:49;6.00;99.90
51793;DHT22;37850;53.178;6.376;2024-03-23T01:37:15;6.00;99.90
51793;DHT22;37850;53.178;6.376;2024-03-23T01:39:41;6.00;99.90
51793;DHT22;37850;53.178;6.376;2024-03-23T01:42:06;6.00;99.90
51793;DHT22;37850;53.178;6.376;2024-03-23T01:44:32;6.00;99.90
51793;DHT22;37850;53.178;6.376;2024-03-23T01:46:58;5.90;99.90
51793;DHT22;37850;53.178;6.376;2024-03-23T01:49:24;5.90;99.90
51793;DHT22;37850;53.178;6.376;2024-03-23T01:51:50;5.80;99.90
51793;DHT22;37850;53.178;6.376;2024-03-23T01:54:16;5.80;99.90
51793;DHT22;37850;53.178;6.376;2024-03-23T01:56:42;5.80;99.90
51793;DHT22;37850;53.178;6.376;2024-03-23T01:59:07;5.80;99.90
51793;DHT22;37850;53.178;6.376;2024-03-23T02:01:37;5.80;99.90
51793;DHT22;37850;53.178;6.376;2024-03-23T02:04:04;5.80;99.90
51793;DHT22;37850;53.178;6.376;2024-03-23T02:06:29;5.70;99.90
51793;DHT22;37850;53.178;6.376;2024-03-23T02:08:55;5.80;99.90
51793;DHT22;37850;53.178;6.376;2024-03-23T02:11:22;5.70;99.90
51793;DHT22;37850;53.178;6.376;2024-03-23T02:13:47;5.70;99.90
51793;DHT22;37850;53.178;6.376;2024-03-23T02:16:13;5.70;99.90
51793;DHT22;37850;53.178;6.376;2024-03-23T02:18:39;5.60;99.90
51793;DHT22;37850;53.178;6.376;2024-03-23T02:21:05;5.60;99.90
51793;DHT22;37850;53.178;6.376;2024-03-23T02:23:31;5.60;99.90
51793;DHT22;37850;53.178;6.376;2024-03-23T02:25:57;5.60;99.90
51793;DHT22;37850;53.178;6.376;2024-03-23T02:28:22;5.60;99.90
51793;DHT22;37850;53.178;6.376;2024-03-23T02:30:49;5.60;99.90
51793;DHT22;37850;53.178;6.376;2024-03-23T02:33:15;5.50;99.90
51793;DHT22;37850;53.178;6.376;2024-03-23T02:35:41;5.50;99.90
51793;DHT22;37850;53.178;6.376;2024-03-23T02:38:07;5.50;99.90
51793;DHT22;37850;53.178;6.376;2024-03-23T02:40:33;5.40;99.90
51793;DHT22;37850;53.178;6.376;2024-03-23T02:42:59;6.00;99.90
51793;DHT22;37850;53.178;6.376;2024-03-23T02:45:24;5.40;99.90
51793;DHT22;37850;53.178;6.376;2024-03-23T02:47:50;5.40;99.90
51793;DHT22;37850;53.178;6.376;2024-03-23T02:50:19;6.00;99.90
51793;DHT22;37850;53.178;6.376;2024-03-23T02:52:45;5.40;99.90
51793;DHT22;37850;53.178;6.376;2024-03-23T02:55:11;5.30;99.90
51793;DHT22;37850;53.178;6.376;2024-03-23T02:57:37;5.40;99.90
51793;DHT22;37850;53.178;6.376;2024-03-23T03:00:03;5.30;99.90
51793;DHT22;37850;53.178;6.376;2024-03-23T03:02:30;5.30;99.90
51793;DHT22;37850;53.178;6.376;2024-03-23T03:04:55;5.60;99.90
51793;DHT22;37850;53.178;6.376;2024-03-23T03:07:21;5.30;99.90
51793;DHT22;37850;53.178;6.376;2024-03-23T03:09:47;5.30;99.90
51793;DHT22;37850;53.178;6.376;2024-03-23T03:12:13;5.20;99.90
51793;DHT22;37850;53.178;6.376;2024-03-23T03:14:38;5.20;99.90
51793;DHT22;37850;53.178;6.376;2024-03-23T03:17:04;5.20;99.90
51793;DHT22;37850;53.178;6.376;2024-03-23T03:19:30;5.20;99.90
51793;DHT22;37850;53.178;6.376;2024-03-23T03:21:55;5.10;99.90
51793;DHT22;37850;53.178;6.376;2024-03-23T03:24:21;5.10;99.90
51793;DHT22;37850;53.178;6.376;2024-03-23T03:26:47;5.10;99.90
51793;DHT22;37850;53.178;6.376;2024-03-23T03:29:13;5.20;99.90
51793;DHT22;37850;53.178;6.376;2024-03-23T03:31:39;5.00;99.90
51793;DHT22;37850;53.178;6.376;2024-03-23T03:34:08;5.00;99.90
51793;DHT22;37850;53.178;6.376;2024-03-23T03:36:34;5.00;99.90
51793;DHT22;37850;53.178;6.376;2024-03-23T03:39:00;5.00;99.90
51793;DHT22;37850;53.178;6.376;2024-03-23T03:41:25;5.00;99.90
51793;DHT22;37850;53.178;6.376;2024-03-23T03:43:51;5.80;99.90
51793;DHT22;37850;53.178;6.376;2024-03-23T03:46:17;5.00;99.90
51793;DHT22;37850;53.178;6.376;2024-03-23T03:48:43;4.90;99.90
51793;DHT22;37850;53.178;6.376;2024-03-23T03:51:10;5.00;99.90
51793;DHT22;37850;53.178;6.376;2024-03-23T03:53:36;4.90;99.90
51793;DHT22;37850;53.178;6.376;2024-03-23T03:56:02;4.90;99.90
51793;DHT22;37850;53.178;6.376;2024-03-23T03:58:27;4.70;99.90
51793;DHT22;37850;53.178;6.376;2024-03-23T04:00:53;4.90;99.90
51793;DHT22;37850;53.178;6.376;2024-03-23T04:03:19;4.80;99.90
51793;DHT22;37850;53.178;6.376;2024-03-23T04:05:55;4.80;99.90
51793;DHT22;37850;53.178;6.376;2024-03-23T04:08:21;5.20;99.90
51793;DHT22;37850;53.178;6.376;2024-03-23T04:10:47;4.80;99.90
51793;DHT22;37850;53.178;6.376;2024-03-23T04:13:13;6.10;99.90
51793;DHT22;37850;53.178;6.376;2024-03-23T04:15:40;4.70;99.90
51793;DHT22;37850;53.178;6.376;2024-03-23T04:18:06;4.70;99.90
51793;DHT22;37850;53.178;6.376;2024-03-23T04:20:32;5.40;99.90
51793;DHT22;37850;53.178;6.376;2024-03-23T04:22:58;5.30;99.90
51793;DHT22;37850;53.178;6.376;2024-03-23T04:25:24;4.70;99.90
51793;DHT22;37850;53.178;6.376;2024-03-23T04:27:50;5.00;99.90
51793;DHT22;37850;53.178;6.376;2024-03-23T04:30:16;4.60;99.90
51793;DHT22;37850;53.178;6.376;2024-03-23T04:32:43;4.60;99.90
51793;DHT22;37850;53.178;6.376;2024-03-23T04:35:09;4.60;99.90
51793;DHT22;37850;53.178;6.376;2024-03-23T04:37:38;4.60;99.90
51793;DHT22;37850;53.178;6.376;2024-03-23T04:40:07;4.60;99.90
51793;DHT22;37850;53.178;6.376;2024-03-23T04:42:33;4.60;99.90
51793;DHT22;37850;53.178;6.376;2024-03-23T04:45:00;4.50;99.90
51793;DHT22;37850;53.178;6.376;2024-03-23T04:47:26;4.60;99.90
51793;DHT22;37850;53.178;6.376;2024-03-23T04:49:51;4.50;99.90
51793;DHT22;37850;53.178;6.376;2024-03-23T04:52:17;4.50;99.90
51793;DHT22;37850;53.178;6.376;2024-03-23T04:54:43;4.50;99.90
51793;DHT22;37850;53.178;6.376;2024-03-23T04:57:10;4.50;99.90
51793;DHT22;37850;53.178;6.376;2024-03-23T04:59:36;4.40;99.90
51793;DHT22;37850;53.178;6.376;2024-03-23T05:02:02;4.40;99.90
51793;DHT22;37850;53.178;6.376;2024-03-23T05:04:28;4.40;99.90
51793;DHT22;37850;53.178;6.376;2024-03-23T05:06:54;4.40;99.90
51793;DHT22;37850;53.178;6.376;2024-03-23T05:09:19;5.10;99.90
51793;DHT22;37850;53.178;6.376;2024-03-23T05:11:45;4.40;99.90
51793;DHT22;37850;53.178;6.376;2024-03-23T05:14:14;4.40;99.90
51793;DHT22;37850;53.178;6.376;2024-03-23T05:16:40;4.40;99.90
51793;DHT22;37850;53.178;6.376;2024-03-23T05:19:06;4.30;99.90
51793;DHT22;37850;53.178;6.376;2024-03-23T05:21:32;4.40;99.90
51793;DHT22;37850;53.178;6.376;2024-03-23T05:23:57;4.30;99.90
51793;DHT22;37850;53.178;6.376;2024-03-23T05:26:23;4.30;99.90
51793;DHT22;37850;53.178;6.376;2024-03-23T05:28:49;4.30;99.90
51793;DHT22;37850;53.178;6.376;2024-03-23T05:31:25;4.70;99.90
51793;DHT22;37850;53.178;6.376;2024-03-23T05:33:51;4.30;99.90
51793;DHT22;37850;53.178;6.376;2024-03-23T05:36:17;4.30;99.90
51793;DHT22;37850;53.178;6.376;2024-03-23T05:38:43;4.40;99.90
51793;DHT22;37850;53.178;6.376;2024-03-23T05:41:09;4.30;99.90
51793;DHT22;37850;53.178;6.376;2024-03-23T05:43:35;4.30;99.90
51793;DHT22;37850;53.178;6.376;2024-03-23T05:46:03;4.70;99.90
51793;DHT22;37850;53.178;6.376;2024-03-23T05:48:31;4.80;99.90
51793;DHT22;37850;53.178;6.376;2024-03-23T05:50:57;4.30;99.90
51793;DHT22;37850;53.178;6.376;2024-03-23T05:53:23;4.30;99.90
51793;DHT22;37850;53.178;6.376;2024-03-23T05:55:59;4.50;99.90
51793;DHT22;37850;53.178;6.376;2024-03-23T05:58:25;4.30;99.90
51793;DHT22;37850;53.178;6.376;2024-03-23T06:01:00;4.70;99.90
51793;DHT22;37850;53.178;6.376;2024-03-23T06:03:27;4.40;99.90
51793;DHT22;37850;53.178;6.376;2024-03-23T06:05:54;4.40;99.90
51793;DHT22;37850;53.178;6.376;2024-03-23T06:08:20;4.40;99.90
51793;DHT22;37850;53.178;6.376;2024-03-23T06:10:46;4.40;99.90
51793;DHT22;37850;53.178;6.376;2024-03-23T06:13:13;4.50;99.90
51793;DHT22;37850;53.178;6.376;2024-03-23T06:15:39;4.40;99.90
51793;DHT22;37850;53.178;6.376;2024-03-23T06:18:05;5.00;99.90
51793;DHT22;37850;53.178;6.376;2024-03-23T06:20:33;4.40;99.90
51793;DHT22;37850;53.178;6.376;2024-03-23T06:23:00;5.10;99.90
51793;DHT22;37850;53.178;6.376;2024-03-23T06:25:25;4.50;99.90
51793;DHT22;37850;53.178;6.376;2024-03-23T06:27:51;4.40;99.90
51793;DHT22;37850;53.178;6.376;2024-03-23T06:30:17;4.40;99.90
51793;DHT22;37850;53.178;6.376;2024-03-23T06:32:43;4.40;99.90
51793;DHT22;37850;53.178;6.376;2024-03-23T06:35:08;4.50;99.90
51793;DHT22;37850;53.178;6.376;2024-03-23T06:37:38;4.50;99.90
51793;DHT22;37850;53.178;6.376;2024-03-23T06:40:08;4.40;99.90
51793;DHT22;37850;53.178;6.376;2024-03-23T06:42:35;4.50;99.90
51793;DHT22;37850;53.178;6.376;2024-03-23T06:45:02;4.40;99.90
51793;DHT22;37850;53.178;6.376;2024-03-23T06:47:27;4.50;99.90
51793;DHT22;37850;53.178;6.376;2024-03-23T06:49:53;4.50;99.90
51793;DHT22;37850;53.178;6.376;2024-03-23T06:52:19;4.60;99.90
51793;DHT22;37850;53.178;6.376;2024-03-23T06:54:45;5.10;99.90
51793;DHT22;37850;53.178;6.376;2024-03-23T06:57:11;5.00;99.90
51793;DHT22;37850;53.178;6.376;2024-03-23T06:59:38;4.80;99.90
51793;DHT22;37850;53.178;6.376;2024-03-23T07:02:08;4.80;99.90
51793;DHT22;37850;53.178;6.376;2024-03-23T07:04:35;4.80;99.90
51793;DHT22;37850;53.178;6.376;2024-03-23T07:07:02;4.90;99.90
51793;DHT22;37850;53.178;6.376;2024-03-23T07:09:28;4.90;99.90
51793;DHT22;37850;53.178;6.376;2024-03-23T07:11:56;4.90;99.90
51793;DHT22;37850;53.178;6.376;2024-03-23T07:14:22;4.80;99.90
51793;DHT22;37850;53.178;6.376;2024-03-23T07:16:48;4.90;99.90
51793;DHT22;37850;53.178;6.376;2024-03-23T07:19:15;4.90;99.90
51793;DHT22;37850;53.178;6.376;2024-03-23T07:21:45;4.90;99.90
51793;DHT22;37850;53.178;6.376;2024-03-23T07:24:11;4.90;99.90
51793;DHT22;37850;53.178;6.376;2024-03-23T07:26:37;5.00;99.90
51793;DHT22;37850;53.178;6.376;2024-03-23T07:29:08;5.20;99.90
51793;DHT22;37850;53.178;6.376;2024-03-23T07:31:34;5.20;99.90
51793;DHT22;37850;53.178;6.376;2024-03-23T07:34:00;5.30;99.90
51793;DHT22;37850;53.178;6.376;2024-03-23T07:36:25;5.50;99.90
51793;DHT22;37850;53.178;6.376;2024-03-23T07:38:51;5.60;99.90
51793;DHT22;37850;53.178;6.376;2024-03-23T07:41:18;5.70;99.90
51793;DHT22;37850;53.178;6.376;2024-03-23T07:43:45;5.90;99.90
51793;DHT22;37850;53.178;6.376;2024-03-23T07:46:11;6.00;99.90
51793;DHT22;37850;53.178;6.376;2024-03-23T07:48:38;6.20;99.90
51793;DHT22;37850;53.178;6.376;2024-03-23T07:51:08;6.30;99.90
51793;DHT22;37850;53.178;6.376;2024-03-23T07:53:38;6.50;99.90
51793;DHT22;37850;53.178;6.376;2024-03-23T07:56:07;6.60;99.90
51793;DHT22;37850;53.178;6.376;2024-03-23T07:58:34;6.80;99.90
51793;DHT22;37850;53.178;6.376;2024-03-23T08:01:05;6.90;99.90
51793;DHT22;37850;53.178;6.376;2024-03-23T08:03:37;7.00;99.90
51793;DHT22;37850;53.178;6.376;2024-03-23T08:06:21;7.00;99.90
51793;DHT22;37850;53.178;6.376;2024-03-23T08:08:56;6.90;99.90
51793;DHT22;37850;53.178;6.376;2024-03-23T08:11:29;6.90;99.90
51793;DHT22;37850;53.178;6.376;2024-03-23T08:13:56;6.80;99.90
51793;DHT22;37850;53.178;6.376;2024-03-23T08:16:22;6.80;99.90
51793;DHT22;37850;53.178;6.376;2024-03-23T08:18:50;6.70;99.90
51793;DHT22;37850;53.178;6.376;2024-03-23T08:21:16;6.70;99.90
51793;DHT22;37850;53.178;6.376;2024-03-23T08:23:42;6.80;99.90
51793;DHT22;37850;53.178;6.376;2024-03-23T08:26:09;6.90;99.90
51793;DHT22;37850;53.178;6.376;2024-03-23T08:28:36;7.20;99.90
51793;DHT22;37850;53.178;6.376;2024-03-23T08:31:08;7.20;99.90
51793;DHT22;37850;53.178;6.376;2024-03-23T08:33:34;7.30;99.90
51793;DHT22;37850;53.178;6.376;2024-03-23T08:36:05;7.40;99.90
51793;DHT22;37850;53.178;6.376;2024-03-23T08:38:32;7.40;99.90
51793;DHT22;37850;53.178;6.376;2024-03-23T08:43:25;7.50;99.90
51793;DHT22;37850;53.178;6.376;2024-03-23T08:45:51;7.40;99.90
51793;DHT22;37850;53.178;6.376;2024-03-23T08:48:18;7.40;99.90
51793;DHT22;37850;53.178;6.376;2024-03-23T08:50:46;7.40;99.90
51793;DHT22;37850;53.178;6.376;2024-03-23T08:53:12;7.40;99.90
51793;DHT22;37850;53.178;6.376;2024-03-23T08:55:37;7.40;99.90
51793;DHT22;37850;53.178;6.376;2024-03-23T08:58:03;7.50;99.90
51793;DHT22;37850;53.178;6.376;2024-03-23T09:00:30;7.60;99.90
51793;DHT22;37850;53.178;6.376;2024-03-23T09:02:56;7.70;99.90
51793;DHT22;37850;53.178;6.376;2024-03-23T09:05:22;7.70;99.90
51793;DHT22;37850;53.178;6.376;2024-03-23T09:07:50;7.80;99.90
51793;DHT22;37850;53.178;6.376;2024-03-23T09:10:15;7.90;99.90
51793;DHT22;37850;53.178;6.376;2024-03-23T09:12:41;8.00;99.90
51793;DHT22;37850;53.178;6.376;2024-03-23T09:15:07;8.40;99.90
51793;DHT22;37850;53.178;6.376;2024-03-23T09:17:33;8.20;99.90
51793;DHT22;37850;53.178;6.376;2024-03-23T09:19:59;8.30;99.90
51793;DHT22;37850;53.178;6.376;2024-03-23T09:22:25;8.90;99.90
51793;DHT22;37850;53.178;6.376;2024-03-23T09:24:51;8.50;99.90
51793;DHT22;37850;53.178;6.376;2024-03-23T09:27:16;8.70;99.90
51793;DHT22;37850;53.178;6.376;2024-03-23T09:29:42;8.40;99.90
51793;DHT22;37850;53.178;6.376;2024-03-23T09:32:08;8.20;99.90
51793;DHT22;37850;53.178;6.376;2024-03-23T09:34:34;8.00;99.90
51793;DHT22;37850;53.178;6.376;2024-03-23T09:37:00;7.90;99.90
51793;DHT22;37850;53.178;6.376;2024-03-23T09:39:25;7.70;99.90
51793;DHT22;37850;53.178;6.376;2024-03-23T09:41:56;7.60;99.90
51793;DHT22;37850;53.178;6.376;2024-03-23T09:44:22;7.50;99.90
51793;DHT22;37850;53.178;6.376;2024-03-23T09:46:49;7.40;99.90
51793;DHT22;37850;53.178;6.376;2024-03-23T09:49:15;7.20;99.90
51793;DHT22;37850;53.178;6.376;2024-03-23T09:51:42;7.20;99.90
51793;DHT22;37850;53.178;6.376;2024-03-23T09:54:08;7.20;99.90
51793;DHT22;37850;53.178;6.376;2024-03-23T09:56:34;7.20;99.90
51793;DHT22;37850;53.178;6.376;2024-03-23T09:59:03;7.20;99.90
51793;DHT22;37850;53.178;6.376;2024-03-23T10:01:32;7.30;99.90
51793;DHT22;37850;53.178;6.376;2024-03-23T10:03:58;7.40;99.90
51793;DHT22;37850;53.178;6.376;2024-03-23T10:06:24;7.50;99.90
51793;DHT22;37850;53.178;6.376;2024-03-23T10:08:53;7.50;99.90
51793;DHT22;37850;53.178;6.376;2024-03-23T10:11:20;7.60;99.90
51793;DHT22;37850;53.178;6.376;2024-03-23T10:13:47;7.70;99.90
51793;DHT22;37850;53.178;6.376;2024-03-23T10:16:21;7.80;99.90
51793;DHT22;37850;53.178;6.376;2024-03-23T10:18:48;7.90;99.90
51793;DHT22;37850;53.178;6.376;2024-03-23T10:21:14;8.00;99.90
51793;DHT22;37850;53.178;6.376;2024-03-23T10:23:42;8.50;99.90
51793;DHT22;37850;53.178;6.376;2024-03-23T10:26:21;8.20;99.90
51793;DHT22;37850;53.178;6.376;2024-03-23T10:29:01;8.20;99.90
51793;DHT22;37850;53.178;6.376;2024-03-23T10:31:28;8.10;99.90
51793;DHT22;37850;53.178;6.376;2024-03-23T10:33:54;8.00;99.90
51793;DHT22;37850;53.178;6.376;2024-03-23T10:36:22;7.90;99.90
51793;DHT22;37850;53.178;6.376;2024-03-23T10:38:50;7.90;99.90
51793;DHT22;37850;53.178;6.376;2024-03-23T10:41:17;7.90;99.90
51793;DHT22;37850;53.178;6.376;2024-03-23T10:43:44;8.20;99.90
51793;DHT22;37850;53.178;6.376;2024-03-23T10:46:10;8.00;99.90
51793;DHT22;37850;53.178;6.376;2024-03-23T10:48:36;8.00;99.90
51793;DHT22;37850;53.178;6.376;2024-03-23T10:51:04;8.50;99.90
51793;DHT22;37850;53.178;6.376;2024-03-23T10:53:33;8.10;99.90
51793;DHT22;37850;53.178;6.376;2024-03-23T10:56:01;8.10;99.90
51793;DHT22;37850;53.178;6.376;2024-03-23T10:58:47;8.00;99.90
51793;DHT22;37850;53.178;6.376;2024-03-23T11:01:15;7.80;99.90
51793;DHT22;37850;53.178;6.376;2024-03-23T11:03:45;7.50;99.90
51793;DHT22;37850;53.178;6.376;2024-03-23T11:06:35;7.70;99.90
51793;DHT22;37850;53.178;6.376;2024-03-23T11:09:01;7.20;99.90
51793;DHT22;37850;53.178;6.376;2024-03-23T11:11:27;7.30;99.90
51793;DHT22;37850;53.178;6.376;2024-03-23T11:13:54;7.10;99.90
51793;DHT22;37850;53.178;6.376;2024-03-23T11:18:51;7.00;99.90
51793;DHT22;37850;53.178;6.376;2024-03-23T11:21:54;7.00;99.90
51793;DHT22;37850;53.178;6.376;2024-03-23T11:24:21;7.00;99.90
51793;DHT22;37850;53.178;6.376;2024-03-23T11:26:48;7.10;99.90
51793;DHT22;37850;53.178;6.376;2024-03-23T11:29:15;7.20;99.90
51793;DHT22;37850;53.178;6.376;2024-03-23T11:31:52;7.20;99.90
51793;DHT22;37850;53.178;6.376;2024-03-23T11:34:18;7.90;99.90
51793;DHT22;37850;53.178;6.376;2024-03-23T11:36:45;7.30;99.90
51793;DHT22;37850;53.178;6.376;2024-03-23T11:39:19;7.30;99.90
51793;DHT22;37850;53.178;6.376;2024-03-23T11:41:56;7.40;99.90
51793;DHT22;37850;53.178;6.376;2024-03-23T11:44:24;7.60;99.90
51793;DHT22;37850;53.178;6.376;2024-03-23T11:46:50;7.50;99.90
51793;DHT22;37850;53.178;6.376;2024-03-23T11:49:25;7.60;99.90
51793;DHT22;37850;53.178;6.376;2024-03-23T11:51:52;7.60;99.90
51793;DHT22;37850;53.178;6.376;2024-03-23T11:54:24;7.60;99.90
51793;DHT22;37850;53.178;6.376;2024-03-23T11:56:57;7.70;99.90
51793;DHT22;37850;53.178;6.376;2024-03-23T11:59:40;7.50;99.90
51793;DHT22;37850;53.178;6.376;2024-03-23T12:04:33;7.50;99.90
51793;DHT22;37850;53.178;6.376;2024-03-23T12:07:20;7.50;99.90
51793;DHT22;37850;53.178;6.376;2024-03-23T12:10:02;7.50;99.90
51793;DHT22;37850;53.178;6.376;2024-03-23T12:12:28;7.50;99.90
51793;DHT22;37850;53.178;6.376;2024-03-23T12:15:09;7.40;99.90
51793;DHT22;37850;53.178;6.376;2024-03-23T12:17:36;7.20;99.90
51793;DHT22;37850;53.178;6.376;2024-03-23T12:20:02;7.10;99.90
51793;DHT22;37850;53.178;6.376;2024-03-23T12:22:28;6.90;99.90
51793;DHT22;37850;53.178;6.376;2024-03-23T12:24:57;6.90;99.90
51793;DHT22;37850;53.178;6.376;2024-03-23T12:27:23;6.90;99.90
51793;DHT22;37850;53.178;6.376;2024-03-23T12:29:49;6.90;99.90
51793;DHT22;37850;53.178;6.376;2024-03-23T12:32:15;6.90;99.90
51793;DHT22;37850;53.178;6.376;2024-03-23T12:34:41;6.90;99.90
51793;DHT22;37850;53.178;6.376;2024-03-23T12:37:08;6.90;99.90
51793;DHT22;37850;53.178;6.376;2024-03-23T12:39:34;6.80;99.90
51793;DHT22;37850;53.178;6.376;2024-03-23T12:42:01;6.70;99.90
51793;DHT22;37850;53.178;6.376;2024-03-23T12:44:30;6.70;99.90
51793;DHT22;37850;53.178;6.376;2024-03-23T12:46:57;6.60;99.90
51793;DHT22;37850;53.178;6.376;2024-03-23T12:49:22;7.10;99.90
51793;DHT22;37850;53.178;6.376;2024-03-23T12:51:55;6.50;99.90
51793;DHT22;37850;53.178;6.376;2024-03-23T12:54:22;6.60;99.90
51793;DHT22;37850;53.178;6.376;2024-03-23T12:56:48;6.70;99.90
51793;DHT22;37850;53.178;6.376;2024-03-23T12:59:14;6.60;99.90
51793;DHT22;37850;53.178;6.376;2024-03-23T13:01:40;6.70;99.90
51793;DHT22;37850;53.178;6.376;2024-03-23T13:04:06;6.80;99.90
51793;DHT22;37850;53.178;6.376;2024-03-23T13:06:32;6.90;99.90
51793;DHT22;37850;53.178;6.376;2024-03-23T13:09:03;7.10;99.90
51793;DHT22;37850;53.178;6.376;2024-03-23T13:11:30;7.00;99.90
51793;DHT22;37850;53.178;6.376;2024-03-23T13:13:56;6.50;99.90
51793;DHT22;37850;53.178;6.376;2024-03-23T13:16:22;7.20;99.90
51793;DHT22;37850;53.178;6.376;2024-03-23T13:18:48;7.30;99.90
51793;DHT22;37850;53.178;6.376;2024-03-23T13:21:13;7.30;99.90
51793;DHT22;37850;53.178;6.376;2024-03-23T13:23:39;7.40;99.90
51793;DHT22;37850;53.178;6.376;2024-03-23T13:26:08;7.40;99.90
51793;DHT22;37850;53.178;6.376;2024-03-23T13:28:34;7.60;99.90
51793;DHT22;37850;53.178;6.376;2024-03-23T13:31:01;7.50;99.90
51793;DHT22;37850;53.178;6.376;2024-03-23T13:33:29;7.40;99.90
51793;DHT22;37850;53.178;6.376;2024-03-23T13:35:56;7.40;99.90
51793;DHT22;37850;53.178;6.376;2024-03-23T13:38:22;7.30;99.90
51793;DHT22;37850;53.178;6.376;2024-03-23T13:40:57;7.30;99.90
51793;DHT22;37850;53.178;6.376;2024-03-23T13:43:24;7.30;99.90
51793;DHT22;37850;53.178;6.376;2024-03-23T13:45:55;7.20;99.90
51793;DHT22;37850;53.178;6.376;2024-03-23T13:48:23;7.20;99.90
51793;DHT22;37850;53.178;6.376;2024-03-23T13:51:03;7.40;99.90
51793;DHT22;37850;53.178;6.376;2024-03-23T13:53:29;7.20;99.90
51793;DHT22;37850;53.178;6.376;2024-03-23T13:55:55;7.20;99.90
51793;DHT22;37850;53.178;6.376;2024-03-23T13:58:21;7.10;99.90
51793;DHT22;37850;53.178;6.376;2024-03-23T14:00:47;7.30;99.90
51793;DHT22;37850;53.178;6.376;2024-03-23T14:03:14;6.90;99.90
51793;DHT22;37850;53.178;6.376;2024-03-23T14:05:40;7.00;99.90
51793;DHT22;37850;53.178;6.376;2024-03-23T14:08:07;7.00;99.90
51793;DHT22;37850;53.178;6.376;2024-03-23T14:10:33;7.00;99.90
51793;DHT22;37850;53.178;6.376;2024-03-23T14:12:59;7.00;99.90
51793;DHT22;37850;53.178;6.376;2024-03-23T14:15:32;7.10;99.90
51793;DHT22;37850;53.178;6.376;2024-03-23T14:17:58;7.60;99.90
51793;DHT22;37850;53.178;6.376;2024-03-23T14:20:24;7.20;99.90
51793;DHT22;37850;53.178;6.376;2024-03-23T14:22:51;7.20;99.90
51793;DHT22;37850;53.178;6.376;2024-03-23T14:25:17;7.20;99.90
51793;DHT22;37850;53.178;6.376;2024-03-23T14:27:44;7.30;99.90
51793;DHT22;37850;53.178;6.376;2024-03-23T14:30:11;7.30;99.90
51793;DHT22;37850;53.178;6.376;2024-03-23T14:32:37;7.40;99.90
51793;DHT22;37850;53.178;6.376;2024-03-23T14:35:04;7.40;99.90
51793;DHT22;37850;53.178;6.376;2024-03-23T14:37:30;7.40;99.90
51793;DHT22;37850;53.178;6.376;2024-03-23T14:39:57;8.10;99.90
51793;DHT22;37850;53.178;6.376;2024-03-23T14:42:23;7.40;99.90
51793;DHT22;37850;53.178;6.376;2024-03-23T14:44:50;7.30;99.90
51793;DHT22;37850;53.178;6.376;2024-03-23T14:47:19;6.60;99.90
51793;DHT22;37850;53.178;6.376;2024-03-23T14:49:46;7.30;99.90
51793;DHT22;37850;53.178;6.376;2024-03-23T14:52:16;7.30;99.90
51793;DHT22;37850;53.178;6.376;2024-03-23T14:54:43;7.60;99.90
51793;DHT22;37850;53.178;6.376;2024-03-23T14:57:09;7.20;99.90
51793;DHT22;37850;53.178;6.376;2024-03-23T14:59:36;7.20;99.90
51793;DHT22;37850;53.178;6.376;2024-03-23T15:02:04;7.20;99.90
51793;DHT22;37850;53.178;6.376;2024-03-23T15:04:30;7.10;99.90
51793;DHT22;37850;53.178;6.376;2024-03-23T15:06:56;7.20;99.90
51793;DHT22;37850;53.178;6.376;2024-03-23T15:09:22;7.20;99.90
51793;DHT22;37850;53.178;6.376;2024-03-23T15:11:47;7.20;99.90
51793;DHT22;37850;53.178;6.376;2024-03-23T15:14:13;7.20;99.90
51793;DHT22;37850;53.178;6.376;2024-03-23T15:16:39;7.30;99.90
51793;DHT22;37850;53.178;6.376;2024-03-23T15:19:04;7.30;99.90
51793;DHT22;37850;53.178;6.376;2024-03-23T15:21:33;7.40;99.90
51793;DHT22;37850;53.178;6.376;2024-03-23T15:23:59;8.00;99.90
51793;DHT22;37850;53.178;6.376;2024-03-23T15:26:25;7.40;99.90
51793;DHT22;37850;53.178;6.376;2024-03-23T15:28:51;7.40;99.90
51793;DHT22;37850;53.178;6.376;2024-03-23T15:31:22;7.50;99.90
51793;DHT22;37850;53.178;6.376;2024-03-23T15:33:48;7.50;99.90
51793;DHT22;37850;53.178;6.376;2024-03-23T15:36:14;7.50;99.90
51793;DHT22;37850;53.178;6.376;2024-03-23T15:38:40;7.50;99.90
51793;DHT22;37850;53.178;6.376;2024-03-23T15:41:05;7.60;99.90
51793;DHT22;37850;53.178;6.376;2024-03-23T15:43:31;7.50;99.90
51793;DHT22;37850;53.178;6.376;2024-03-23T15:45:58;7.50;99.90
51793;DHT22;37850;53.178;6.376;2024-03-23T15:48:28;7.60;99.90
51793;DHT22;37850;53.178;6.376;2024-03-23T15:51:04;7.60;99.90
51793;DHT22;37850;53.178;6.376;2024-03-23T15:53:30;7.60;99.90
51793;DHT22;37850;53.178;6.376;2024-03-23T15:55:57;7.60;99.90
51793;DHT22;37850;53.178;6.376;2024-03-23T15:58:23;7.60;99.90
51793;DHT22;37850;53.178;6.376;2024-03-23T16:01:03;7.60;99.90
51793;DHT22;37850;53.178;6.376;2024-03-23T16:03:30;7.50;99.90
51793;DHT22;37850;53.178;6.376;2024-03-23T16:06:02;7.50;99.90
51793;DHT22;37850;53.178;6.376;2024-03-23T16:08:29;7.60;99.90
51793;DHT22;37850;53.178;6.376;2024-03-23T16:10:59;7.60;99.90
51793;DHT22;37850;53.178;6.376;2024-03-23T16:13:25;7.50;99.90
51793;DHT22;37850;53.178;6.376;2024-03-23T16:15:58;7.70;99.90
51793;DHT22;37850;53.178;6.376;2024-03-23T16:18:25;7.50;99.90
51793;DHT22;37850;53.178;6.376;2024-03-23T16:21:00;7.80;99.90
51793;DHT22;37850;53.178;6.376;2024-03-23T16:23:28;7.50;99.90
51793;DHT22;37850;53.178;6.376;2024-03-23T16:25:55;7.60;99.90
51793;DHT22;37850;53.178;6.376;2024-03-23T16:28:35;7.50;99.90
51793;DHT22;37850;53.178;6.376;2024-03-23T16:31:06;7.60;99.90
51793;DHT22;37850;53.178;6.376;2024-03-23T16:33:32;7.50;99.90
51793;DHT22;37850;53.178;6.376;2024-03-23T16:36:02;7.50;99.90
51793;DHT22;37850;53.178;6.376;2024-03-23T16:38:39;7.50;99.90
51793;DHT22;37850;53.178;6.376;2024-03-23T16:41:06;7.40;99.90
51793;DHT22;37850;53.178;6.376;2024-03-23T16:43:33;7.40;99.90
51793;DHT22;37850;53.178;6.376;2024-03-23T16:46:01;7.40;99.90
51793;DHT22;37850;53.178;6.376;2024-03-23T16:48:30;7.40;99.90